sensor_id;sensor_type;location;lat;lon;timestamp;P1;durP1;ratioP1;P2;durP2;ratioP2
55288;SDS011;41154;45.394;5.734;2022-12-29T00:00:52;13.27;;;6.75;;
55288;SDS011;41154;45.394;5.734;2022-12-29T00:03:18;11.00;;;6.22;;
55288;SDS011;41154;45.394;5.734;2022-12-29T00:05:43;8.25;;;5.53;;
55288;SDS011;41154;45.394;5.734;2022-12-29T00:08:09;13.32;;;6.60;;
55288;SDS011;41154;45.394;5.734;2022-12-29T00:10:35;9.30;;;5.18;;
55288;SDS011;41154;45.394;5.734;2022-12-29T00:13:00;7.43;;;5.15;;
55288;SDS011;41154;45.394;5.734;2022-12-29T00:15:45;12.20;;;5.75;;
55288;SDS011;41154;45.394;5.734;2022-12-29T00:18:10;12.20;;;6.07;;
55288;SDS011;41154;45.394;5.734;2022-12-29T00:20:37;9.38;;;5.57;;
55288;SDS011;41154;45.394;5.734;2022-12-29T00:23:21;12.47;;;5.83;;
55288;SDS011;41154;45.394;5.734;2022-12-29T00:26:15;13.10;;;5.20;;
55288;SDS011;41154;45.394;5.734;2022-12-29T00:29:01;11.30;;;5.45;;
55288;SDS011;41154;45.394;5.734;2022-12-29T00:31:47;9.85;;;5.05;;
55288;SDS011;41154;45.394;5.734;2022-12-29T00:34:31;7.93;;;4.35;;
55288;SDS011;41154;45.394;5.734;2022-12-29T00:37:16;6.82;;;4.20;;
55288;SDS011;41154;45.394;5.734;2022-12-29T00:39:42;11.55;;;4.85;;
55288;SDS011;41154;45.394;5.734;2022-12-29T00:42:26;14.65;;;6.00;;
55288;SDS011;41154;45.394;5.734;2022-12-29T00:45:10;10.88;;;5.38;;
55288;SDS011;41154;45.394;5.734;2022-12-29T00:47:36;8.35;;;4.95;;
55288;SDS011;41154;45.394;5.734;2022-12-29T00:50:02;11.93;;;6.53;;
55288;SDS011;41154;45.394;5.734;2022-12-29T00:52:27;11.30;;;5.35;;
55288;SDS011;41154;45.394;5.734;2022-12-29T00:54:53;12.80;;;5.40;;
55288;SDS011;41154;45.394;5.734;2022-12-29T00:57:19;9.15;;;5.20;;
55288;SDS011;41154;45.394;5.734;2022-12-29T00:59:45;11.02;;;6.32;;
55288;SDS011;41154;45.394;5.734;2022-12-29T01:02:10;7.38;;;5.15;;
55288;SDS011;41154;45.394;5.734;2022-12-29T01:04:36;9.57;;;5.53;;
55288;SDS011;41154;45.394;5.734;2022-12-29T01:07:02;11.75;;;5.70;;
55288;SDS011;41154;45.394;5.734;2022-12-29T01:09:28;9.52;;;5.75;;
55288;SDS011;41154;45.394;5.734;2022-12-29T01:12:12;7.72;;;4.50;;
55288;SDS011;41154;45.394;5.734;2022-12-29T01:14:38;11.30;;;5.65;;
55288;SDS011;41154;45.394;5.734;2022-12-29T01:17:07;8.80;;;5.03;;
55288;SDS011;41154;45.394;5.734;2022-12-29T01:19:33;9.13;;;5.47;;
55288;SDS011;41154;45.394;5.734;2022-12-29T01:21:59;9.38;;;5.50;;
55288;SDS011;41154;45.394;5.734;2022-12-29T01:24:26;7.03;;;3.92;;
55288;SDS011;41154;45.394;5.734;2022-12-29T01:26:52;9.00;;;5.10;;
55288;SDS011;41154;45.394;5.734;2022-12-29T01:29:19;8.23;;;4.60;;
55288;SDS011;41154;45.394;5.734;2022-12-29T01:31:45;10.75;;;5.93;;
55288;SDS011;41154;45.394;5.734;2022-12-29T01:34:11;8.50;;;5.35;;
55288;SDS011;41154;45.394;5.734;2022-12-29T01:36:38;11.55;;;5.10;;
55288;SDS011;41154;45.394;5.734;2022-12-29T01:39:04;11.13;;;4.68;;
55288;SDS011;41154;45.394;5.734;2022-12-29T01:41:30;11.25;;;4.88;;
55288;SDS011;41154;45.394;5.734;2022-12-29T01:43:57;7.28;;;4.25;;
55288;SDS011;41154;45.394;5.734;2022-12-29T01:46:42;9.27;;;5.05;;
55288;SDS011;41154;45.394;5.734;2022-12-29T01:49:14;13.65;;;5.22;;
55288;SDS011;41154;45.394;5.734;2022-12-29T01:51:45;9.48;;;5.72;;
55288;SDS011;41154;45.394;5.734;2022-12-29T01:54:17;10.25;;;5.50;;
55288;SDS011;41154;45.394;5.734;2022-12-29T01:56:50;12.88;;;6.82;;
55288;SDS011;41154;45.394;5.734;2022-12-29T01:59:19;8.27;;;5.32;;
55288;SDS011;41154;45.394;5.734;2022-12-29T02:01:49;10.77;;;5.85;;
55288;SDS011;41154;45.394;5.734;2022-12-29T02:04:15;10.40;;;5.78;;
55288;SDS011;41154;45.394;5.734;2022-12-29T02:06:47;7.95;;;5.28;;
55288;SDS011;41154;45.394;5.734;2022-12-29T02:09:17;8.18;;;5.03;;
55288;SDS011;41154;45.394;5.734;2022-12-29T02:11:43;13.23;;;5.60;;
55288;SDS011;41154;45.394;5.734;2022-12-29T02:14:09;12.85;;;6.18;;
55288;SDS011;41154;45.394;5.734;2022-12-29T02:30:07;9.73;;;5.38;;
55288;SDS011;41154;45.394;5.734;2022-12-29T02:35:34;7.07;;;4.40;;
55288;SDS011;41154;45.394;5.734;2022-12-29T02:41:13;14.55;;;4.93;;
55288;SDS011;41154;45.394;5.734;2022-12-29T02:43:56;7.43;;;4.63;;
55288;SDS011;41154;45.394;5.734;2022-12-29T02:49:10;6.78;;;4.43;;
55288;SDS011;41154;45.394;5.734;2022-12-29T02:54:11;10.43;;;4.90;;
55288;SDS011;41154;45.394;5.734;2022-12-29T02:56:55;10.63;;;5.28;;
55288;SDS011;41154;45.394;5.734;2022-12-29T02:59:21;11.00;;;4.95;;
55288;SDS011;41154;45.394;5.734;2022-12-29T03:08:17;9.57;;;5.53;;
55288;SDS011;41154;45.394;5.734;2022-12-29T03:16:32;8.77;;;4.68;;
55288;SDS011;41154;45.394;5.734;2022-12-29T03:21:53;9.55;;;4.32;;
55288;SDS011;41154;45.394;5.734;2022-12-29T03:24:44;10.98;;;5.75;;
55288;SDS011;41154;45.394;5.734;2022-12-29T03:27:15;9.73;;;4.97;;
55288;SDS011;41154;45.394;5.734;2022-12-29T03:29:50;8.00;;;4.65;;
55288;SDS011;41154;45.394;5.734;2022-12-29T03:32:24;6.88;;;4.90;;
55288;SDS011;41154;45.394;5.734;2022-12-29T03:34:57;10.43;;;5.22;;
55288;SDS011;41154;45.394;5.734;2022-12-29T03:37:26;9.05;;;5.30;;
55288;SDS011;41154;45.394;5.734;2022-12-29T03:39:58;6.82;;;4.03;;
55288;SDS011;41154;45.394;5.734;2022-12-29T03:42:25;9.10;;;5.22;;
55288;SDS011;41154;45.394;5.734;2022-12-29T03:44:54;6.88;;;3.67;;
55288;SDS011;41154;45.394;5.734;2022-12-29T03:47:22;9.48;;;4.80;;
55288;SDS011;41154;45.394;5.734;2022-12-29T03:49:50;8.55;;;5.10;;
55288;SDS011;41154;45.394;5.734;2022-12-29T03:52:16;8.55;;;4.45;;
55288;SDS011;41154;45.394;5.734;2022-12-29T03:54:44;7.45;;;4.57;;
55288;SDS011;41154;45.394;5.734;2022-12-29T03:57:11;8.60;;;4.95;;
55288;SDS011;41154;45.394;5.734;2022-12-29T03:59:53;8.38;;;4.80;;
55288;SDS011;41154;45.394;5.734;2022-12-29T04:02:19;7.63;;;4.07;;
55288;SDS011;41154;45.394;5.734;2022-12-29T04:04:45;14.50;;;3.92;;
55288;SDS011;41154;45.394;5.734;2022-12-29T04:07:11;6.72;;;3.90;;
55288;SDS011;41154;45.394;5.734;2022-12-29T04:09:38;7.15;;;3.90;;
55288;SDS011;41154;45.394;5.734;2022-12-29T04:12:06;6.18;;;3.92;;
55288;SDS011;41154;45.394;5.734;2022-12-29T04:14:34;9.48;;;5.95;;
55288;SDS011;41154;45.394;5.734;2022-12-29T04:17:00;8.10;;;5.07;;
55288;SDS011;41154;45.394;5.734;2022-12-29T04:19:27;8.88;;;4.45;;
55288;SDS011;41154;45.394;5.734;2022-12-29T04:21:54;8.88;;;4.18;;
55288;SDS011;41154;45.394;5.734;2022-12-29T04:24:20;5.50;;;3.45;;
55288;SDS011;41154;45.394;5.734;2022-12-29T04:26:48;6.47;;;3.60;;
55288;SDS011;41154;45.394;5.734;2022-12-29T04:29:35;9.77;;;4.80;;
55288;SDS011;41154;45.394;5.734;2022-12-29T04:32:19;5.97;;;3.88;;
55288;SDS011;41154;45.394;5.734;2022-12-29T04:34:48;6.10;;;4.38;;
55288;SDS011;41154;45.394;5.734;2022-12-29T04:37:14;5.88;;;4.07;;
55288;SDS011;41154;45.394;5.734;2022-12-29T04:39:40;8.60;;;5.03;;
55288;SDS011;41154;45.394;5.734;2022-12-29T04:42:07;6.15;;;4.32;;
55288;SDS011;41154;45.394;5.734;2022-12-29T04:44:33;6.60;;;3.75;;
55288;SDS011;41154;45.394;5.734;2022-12-29T04:47:08;9.55;;;5.10;;
55288;SDS011;41154;45.394;5.734;2022-12-29T04:49:45;11.15;;;4.85;;
55288;SDS011;41154;45.394;5.734;2022-12-29T04:52:37;6.75;;;4.45;;
55288;SDS011;41154;45.394;5.734;2022-12-29T04:55:03;6.53;;;4.00;;
55288;SDS011;41154;45.394;5.734;2022-12-29T04:57:29;8.00;;;4.78;;
55288;SDS011;41154;45.394;5.734;2022-12-29T04:59:57;7.60;;;4.60;;
55288;SDS011;41154;45.394;5.734;2022-12-29T05:02:23;6.57;;;4.22;;
55288;SDS011;41154;45.394;5.734;2022-12-29T05:04:50;9.75;;;5.28;;
55288;SDS011;41154;45.394;5.734;2022-12-29T05:07:16;8.52;;;4.93;;
55288;SDS011;41154;45.394;5.734;2022-12-29T05:09:44;7.95;;;4.72;;
55288;SDS011;41154;45.394;5.734;2022-12-29T05:12:09;12.38;;;6.40;;
55288;SDS011;41154;45.394;5.734;2022-12-29T05:14:42;7.38;;;5.43;;
55288;SDS011;41154;45.394;5.734;2022-12-29T05:17:08;9.38;;;5.55;;
55288;SDS011;41154;45.394;5.734;2022-12-29T05:19:34;9.85;;;6.55;;
55288;SDS011;41154;45.394;5.734;2022-12-29T05:22:00;9.30;;;6.05;;
55288;SDS011;41154;45.394;5.734;2022-12-29T05:24:26;7.20;;;4.93;;
55288;SDS011;41154;45.394;5.734;2022-12-29T05:26:54;7.85;;;4.47;;
55288;SDS011;41154;45.394;5.734;2022-12-29T05:29:33;9.77;;;5.50;;
55288;SDS011;41154;45.394;5.734;2022-12-29T05:31:59;9.57;;;5.00;;
55288;SDS011;41154;45.394;5.734;2022-12-29T05:34:26;7.22;;;4.22;;
55288;SDS011;41154;45.394;5.734;2022-12-29T05:36:51;7.57;;;5.05;;
55288;SDS011;41154;45.394;5.734;2022-12-29T05:39:17;8.88;;;4.60;;
55288;SDS011;41154;45.394;5.734;2022-12-29T05:41:48;10.35;;;5.20;;
55288;SDS011;41154;45.394;5.734;2022-12-29T05:44:17;6.15;;;3.70;;
55288;SDS011;41154;45.394;5.734;2022-12-29T05:46:43;8.40;;;5.05;;
55288;SDS011;41154;45.394;5.734;2022-12-29T05:49:14;5.45;;;3.90;;
55288;SDS011;41154;45.394;5.734;2022-12-29T05:52:02;7.85;;;4.10;;
55288;SDS011;41154;45.394;5.734;2022-12-29T05:54:29;7.28;;;4.40;;
55288;SDS011;41154;45.394;5.734;2022-12-29T05:56:55;8.93;;;4.60;;
55288;SDS011;41154;45.394;5.734;2022-12-29T05:59:21;7.78;;;4.07;;
55288;SDS011;41154;45.394;5.734;2022-12-29T06:01:47;7.45;;;3.72;;
55288;SDS011;41154;45.394;5.734;2022-12-29T06:04:13;5.85;;;3.92;;
55288;SDS011;41154;45.394;5.734;2022-12-29T06:06:39;8.20;;;4.30;;
55288;SDS011;41154;45.394;5.734;2022-12-29T06:09:10;9.18;;;4.30;;
55288;SDS011;41154;45.394;5.734;2022-12-29T06:11:36;5.20;;;3.47;;
55288;SDS011;41154;45.394;5.734;2022-12-29T06:14:02;6.97;;;3.90;;
55288;SDS011;41154;45.394;5.734;2022-12-29T06:16:31;5.72;;;3.38;;
55288;SDS011;41154;45.394;5.734;2022-12-29T06:18:59;6.68;;;4.05;;
55288;SDS011;41154;45.394;5.734;2022-12-29T06:21:25;6.93;;;5.10;;
55288;SDS011;41154;45.394;5.734;2022-12-29T06:23:51;12.70;;;6.43;;
55288;SDS011;41154;45.394;5.734;2022-12-29T06:26:17;12.82;;;6.60;;
55288;SDS011;41154;45.394;5.734;2022-12-29T06:28:45;10.25;;;4.80;;
55288;SDS011;41154;45.394;5.734;2022-12-29T06:31:10;10.05;;;5.35;;
55288;SDS011;41154;45.394;5.734;2022-12-29T06:33:37;10.48;;;4.72;;
55288;SDS011;41154;45.394;5.734;2022-12-29T06:36:03;8.68;;;4.45;;
55288;SDS011;41154;45.394;5.734;2022-12-29T06:38:29;8.60;;;4.18;;
55288;SDS011;41154;45.394;5.734;2022-12-29T06:40:57;11.55;;;5.40;;
55288;SDS011;41154;45.394;5.734;2022-12-29T06:43:41;12.52;;;5.47;;
55288;SDS011;41154;45.394;5.734;2022-12-29T06:46:14;8.90;;;4.85;;
55288;SDS011;41154;45.394;5.734;2022-12-29T06:48:40;10.35;;;5.15;;
55288;SDS011;41154;45.394;5.734;2022-12-29T06:51:07;8.75;;;4.72;;
55288;SDS011;41154;45.394;5.734;2022-12-29T06:53:33;7.80;;;4.05;;
55288;SDS011;41154;45.394;5.734;2022-12-29T06:55:59;7.55;;;4.20;;
55288;SDS011;41154;45.394;5.734;2022-12-29T06:58:25;6.80;;;4.53;;
55288;SDS011;41154;45.394;5.734;2022-12-29T07:00:50;9.00;;;4.45;;
55288;SDS011;41154;45.394;5.734;2022-12-29T07:03:16;7.85;;;4.40;;
55288;SDS011;41154;45.394;5.734;2022-12-29T07:05:42;7.03;;;4.25;;
55288;SDS011;41154;45.394;5.734;2022-12-29T07:08:08;6.43;;;3.65;;
55288;SDS011;41154;45.394;5.734;2022-12-29T07:10:34;8.00;;;4.03;;
55288;SDS011;41154;45.394;5.734;2022-12-29T07:12:59;6.07;;;2.38;;
55288;SDS011;41154;45.394;5.734;2022-12-29T07:15:25;2.50;;;1.52;;
55288;SDS011;41154;45.394;5.734;2022-12-29T07:17:51;10.07;;;2.80;;
55288;SDS011;41154;45.394;5.734;2022-12-29T07:20:17;5.03;;;2.10;;
55288;SDS011;41154;45.394;5.734;2022-12-29T07:22:43;5.10;;;2.58;;
55288;SDS011;41154;45.394;5.734;2022-12-29T07:25:09;6.22;;;3.05;;
55288;SDS011;41154;45.394;5.734;2022-12-29T07:27:34;5.82;;;3.55;;
55288;SDS011;41154;45.394;5.734;2022-12-29T07:30:00;9.85;;;4.38;;
55288;SDS011;41154;45.394;5.734;2022-12-29T07:32:26;7.90;;;3.92;;
55288;SDS011;41154;45.394;5.734;2022-12-29T07:34:51;6.45;;;3.55;;
55288;SDS011;41154;45.394;5.734;2022-12-29T07:37:17;4.50;;;2.15;;
55288;SDS011;41154;45.394;5.734;2022-12-29T07:39:43;6.25;;;3.15;;
55288;SDS011;41154;45.394;5.734;2022-12-29T07:42:09;7.30;;;2.78;;
55288;SDS011;41154;45.394;5.734;2022-12-29T07:44:57;7.47;;;3.53;;
55288;SDS011;41154;45.394;5.734;2022-12-29T07:47:35;5.13;;;2.28;;
55288;SDS011;41154;45.394;5.734;2022-12-29T07:50:01;2.83;;;1.70;;
55288;SDS011;41154;45.394;5.734;2022-12-29T07:52:27;5.78;;;1.90;;
55288;SDS011;41154;45.394;5.734;2022-12-29T07:54:52;3.38;;;2.13;;
55288;SDS011;41154;45.394;5.734;2022-12-29T07:57:18;3.58;;;2.17;;
55288;SDS011;41154;45.394;5.734;2022-12-29T07:59:44;5.20;;;2.00;;
55288;SDS011;41154;45.394;5.734;2022-12-29T08:02:10;3.28;;;1.80;;
55288;SDS011;41154;45.394;5.734;2022-12-29T08:04:36;3.70;;;1.88;;
55288;SDS011;41154;45.394;5.734;2022-12-29T08:07:02;3.85;;;2.25;;
55288;SDS011;41154;45.394;5.734;2022-12-29T08:09:28;3.33;;;1.98;;
55288;SDS011;41154;45.394;5.734;2022-12-29T08:11:53;4.60;;;2.30;;
55288;SDS011;41154;45.394;5.734;2022-12-29T08:14:20;4.07;;;1.92;;
55288;SDS011;41154;45.394;5.734;2022-12-29T08:16:46;3.47;;;1.77;;
55288;SDS011;41154;45.394;5.734;2022-12-29T08:19:12;3.38;;;2.00;;
55288;SDS011;41154;45.394;5.734;2022-12-29T08:21:38;2.60;;;1.70;;
55288;SDS011;41154;45.394;5.734;2022-12-29T08:24:04;3.50;;;1.92;;
55288;SDS011;41154;45.394;5.734;2022-12-29T08:26:31;5.05;;;1.70;;
55288;SDS011;41154;45.394;5.734;2022-12-29T08:28:56;6.47;;;2.10;;
55288;SDS011;41154;45.394;5.734;2022-12-29T08:31:22;3.47;;;1.75;;
55288;SDS011;41154;45.394;5.734;2022-12-29T08:33:49;2.63;;;1.98;;
55288;SDS011;41154;45.394;5.734;2022-12-29T08:36:15;3.83;;;1.88;;
55288;SDS011;41154;45.394;5.734;2022-12-29T08:38:40;3.88;;;1.63;;
55288;SDS011;41154;45.394;5.734;2022-12-29T08:41:06;4.43;;;2.05;;
55288;SDS011;41154;45.394;5.734;2022-12-29T08:43:32;3.53;;;2.10;;
55288;SDS011;41154;45.394;5.734;2022-12-29T08:45:58;4.97;;;1.80;;
55288;SDS011;41154;45.394;5.734;2022-12-29T08:48:25;4.40;;;1.92;;
55288;SDS011;41154;45.394;5.734;2022-12-29T08:50:51;5.32;;;1.98;;
55288;SDS011;41154;45.394;5.734;2022-12-29T08:53:17;2.67;;;1.83;;
55288;SDS011;41154;45.394;5.734;2022-12-29T08:55:47;2.22;;;1.55;;
55288;SDS011;41154;45.394;5.734;2022-12-29T08:58:20;2.20;;;1.42;;
55288;SDS011;41154;45.394;5.734;2022-12-29T09:00:45;1.63;;;1.25;;
55288;SDS011;41154;45.394;5.734;2022-12-29T09:03:11;2.80;;;1.60;;
55288;SDS011;41154;45.394;5.734;2022-12-29T09:05:37;2.90;;;1.60;;
55288;SDS011;41154;45.394;5.734;2022-12-29T09:08:03;5.80;;;2.05;;
55288;SDS011;41154;45.394;5.734;2022-12-29T09:10:29;3.78;;;2.13;;
55288;SDS011;41154;45.394;5.734;2022-12-29T09:12:55;4.78;;;2.35;;
55288;SDS011;41154;45.394;5.734;2022-12-29T09:15:21;3.88;;;1.90;;
55288;SDS011;41154;45.394;5.734;2022-12-29T09:17:47;3.17;;;2.10;;
55288;SDS011;41154;45.394;5.734;2022-12-29T09:20:13;3.92;;;1.90;;
55288;SDS011;41154;45.394;5.734;2022-12-29T09:22:41;5.97;;;2.13;;
55288;SDS011;41154;45.394;5.734;2022-12-29T09:25:07;2.97;;;1.73;;
55288;SDS011;41154;45.394;5.734;2022-12-29T09:27:34;3.90;;;2.20;;
55288;SDS011;41154;45.394;5.734;2022-12-29T09:30:00;2.40;;;1.85;;
55288;SDS011;41154;45.394;5.734;2022-12-29T09:32:26;3.60;;;2.17;;
55288;SDS011;41154;45.394;5.734;2022-12-29T09:34:52;3.22;;;1.60;;
55288;SDS011;41154;45.394;5.734;2022-12-29T09:37:18;2.28;;;1.60;;
55288;SDS011;41154;45.394;5.734;2022-12-29T09:39:44;3.33;;;2.10;;
55288;SDS011;41154;45.394;5.734;2022-12-29T09:42:13;4.35;;;1.90;;
55288;SDS011;41154;45.394;5.734;2022-12-29T09:47:16;2.15;;;1.35;;
55288;SDS011;41154;45.394;5.734;2022-12-29T09:49:54;7.97;;;1.63;;
55288;SDS011;41154;45.394;5.734;2022-12-29T09:52:22;4.40;;;1.58;;
55288;SDS011;41154;45.394;5.734;2022-12-29T10:00:21;2.58;;;1.55;;
55288;SDS011;41154;45.394;5.734;2022-12-29T10:02:54;4.93;;;1.60;;
55288;SDS011;41154;45.394;5.734;2022-12-29T10:10:54;3.83;;;2.05;;
55288;SDS011;41154;45.394;5.734;2022-12-29T10:16:28;4.07;;;1.60;;
55288;SDS011;41154;45.394;5.734;2022-12-29T10:19:15;3.60;;;1.92;;
55288;SDS011;41154;45.394;5.734;2022-12-29T10:21:51;2.25;;;1.85;;
55288;SDS011;41154;45.394;5.734;2022-12-29T10:24:21;1.55;;;1.20;;
55288;SDS011;41154;45.394;5.734;2022-12-29T10:26:48;2.70;;;1.92;;
55288;SDS011;41154;45.394;5.734;2022-12-29T10:29:22;7.75;;;5.20;;
55288;SDS011;41154;45.394;5.734;2022-12-29T10:34:56;4.30;;;3.08;;
55288;SDS011;41154;45.394;5.734;2022-12-29T10:37:40;2.65;;;1.90;;
55288;SDS011;41154;45.394;5.734;2022-12-29T10:41:00;4.78;;;1.17;;
55288;SDS011;41154;45.394;5.734;2022-12-29T10:43:11;2.08;;;1.15;;
55288;SDS011;41154;45.394;5.734;2022-12-29T10:45:45;3.55;;;1.63;;
55288;SDS011;41154;45.394;5.734;2022-12-29T10:48:17;2.28;;;1.35;;
55288;SDS011;41154;45.394;5.734;2022-12-29T10:50:50;3.95;;;1.70;;
55288;SDS011;41154;45.394;5.734;2022-12-29T10:53:19;3.20;;;1.52;;
55288;SDS011;41154;45.394;5.734;2022-12-29T10:55:49;3.72;;;1.80;;
55288;SDS011;41154;45.394;5.734;2022-12-29T10:58:16;5.63;;;2.13;;
55288;SDS011;41154;45.394;5.734;2022-12-29T11:00:43;4.70;;;1.85;;
55288;SDS011;41154;45.394;5.734;2022-12-29T11:08:25;5.53;;;1.50;;
55288;SDS011;41154;45.394;5.734;2022-12-29T11:11:02;3.20;;;1.85;;
55288;SDS011;41154;45.394;5.734;2022-12-29T11:13:47;3.28;;;1.95;;
55288;SDS011;41154;45.394;5.734;2022-12-29T11:16:15;2.25;;;1.40;;
55288;SDS011;41154;45.394;5.734;2022-12-29T11:18:53;4.90;;;1.55;;
55288;SDS011;41154;45.394;5.734;2022-12-29T11:23:56;2.97;;;1.60;;
55288;SDS011;41154;45.394;5.734;2022-12-29T11:26:24;3.42;;;1.67;;
55288;SDS011;41154;45.394;5.734;2022-12-29T11:34:18;6.32;;;1.70;;
55288;SDS011;41154;45.394;5.734;2022-12-29T11:36:53;6.45;;;1.92;;
55288;SDS011;41154;45.394;5.734;2022-12-29T11:39:37;2.53;;;1.52;;
55288;SDS011;41154;45.394;5.734;2022-12-29T11:42:22;3.78;;;1.70;;
55288;SDS011;41154;45.394;5.734;2022-12-29T11:45:15;4.15;;;2.13;;
55288;SDS011;41154;45.394;5.734;2022-12-29T11:47:44;5.88;;;1.85;;
55288;SDS011;41154;45.394;5.734;2022-12-29T11:50:17;4.70;;;1.70;;
55288;SDS011;41154;45.394;5.734;2022-12-29T11:52:46;6.07;;;2.20;;
55288;SDS011;41154;45.394;5.734;2022-12-29T11:55:19;5.25;;;2.20;;
55288;SDS011;41154;45.394;5.734;2022-12-29T11:57:47;4.75;;;2.20;;
55288;SDS011;41154;45.394;5.734;2022-12-29T12:00:19;7.13;;;2.22;;
55288;SDS011;41154;45.394;5.734;2022-12-29T12:03:11;4.60;;;1.63;;
55288;SDS011;41154;45.394;5.734;2022-12-29T12:05:47;3.50;;;1.85;;
55288;SDS011;41154;45.394;5.734;2022-12-29T12:10:58;4.03;;;2.30;;
55288;SDS011;41154;45.394;5.734;2022-12-29T12:13:33;4.43;;;1.85;;
55288;SDS011;41154;45.394;5.734;2022-12-29T12:18:38;2.40;;;1.70;;
55288;SDS011;41154;45.394;5.734;2022-12-29T12:29:41;2.75;;;1.90;;
55288;SDS011;41154;45.394;5.734;2022-12-29T12:34:44;4.50;;;1.90;;
55288;SDS011;41154;45.394;5.734;2022-12-29T12:40:16;3.40;;;1.92;;
55288;SDS011;41154;45.394;5.734;2022-12-29T12:49:03;6.68;;;2.40;;
55288;SDS011;41154;45.394;5.734;2022-12-29T12:51:46;2.63;;;1.85;;
55288;SDS011;41154;45.394;5.734;2022-12-29T12:59:38;7.20;;;2.08;;
55288;SDS011;41154;45.394;5.734;2022-12-29T13:02:27;3.78;;;1.85;;
55288;SDS011;41154;45.394;5.734;2022-12-29T13:07:59;7.15;;;2.25;;
55288;SDS011;41154;45.394;5.734;2022-12-29T13:10:56;7.28;;;2.95;;
55288;SDS011;41154;45.394;5.734;2022-12-29T13:24:21;5.00;;;2.22;;
55288;SDS011;41154;45.394;5.734;2022-12-29T13:27:20;8.07;;;2.47;;
55288;SDS011;41154;45.394;5.734;2022-12-29T13:30:10;5.97;;;2.67;;
55288;SDS011;41154;45.394;5.734;2022-12-29T13:38:43;5.45;;;2.55;;
55288;SDS011;41154;45.394;5.734;2022-12-29T13:41:34;7.28;;;2.67;;
55288;SDS011;41154;45.394;5.734;2022-12-29T13:44:06;5.13;;;2.53;;
55288;SDS011;41154;45.394;5.734;2022-12-29T13:46:40;4.85;;;2.78;;
55288;SDS011;41154;45.394;5.734;2022-12-29T13:49:20;4.90;;;2.80;;
55288;SDS011;41154;45.394;5.734;2022-12-29T13:51:50;4.40;;;2.45;;
55288;SDS011;41154;45.394;5.734;2022-12-29T13:54:25;4.55;;;3.00;;
55288;SDS011;41154;45.394;5.734;2022-12-29T14:04:59;4.60;;;2.67;;
55288;SDS011;41154;45.394;5.734;2022-12-29T14:11:07;7.45;;;2.20;;
55288;SDS011;41154;45.394;5.734;2022-12-29T14:15:42;5.15;;;3.05;;
55288;SDS011;41154;45.394;5.734;2022-12-29T14:18:14;8.77;;;3.10;;
55288;SDS011;41154;45.394;5.734;2022-12-29T14:20:53;5.72;;;2.50;;
55288;SDS011;41154;45.394;5.734;2022-12-29T14:26:00;7.57;;;2.60;;
55288;SDS011;41154;45.394;5.734;2022-12-29T14:28:46;5.93;;;3.63;;
55288;SDS011;41154;45.394;5.734;2022-12-29T14:33:39;7.30;;;3.38;;
55288;SDS011;41154;45.394;5.734;2022-12-29T14:36:25;4.07;;;2.63;;
55288;SDS011;41154;45.394;5.734;2022-12-29T14:39:31;4.28;;;2.20;;
55288;SDS011;41154;45.394;5.734;2022-12-29T14:42:06;16.08;;;12.43;;
55288;SDS011;41154;45.394;5.734;2022-12-29T14:44:48;5.97;;;4.40;;
55288;SDS011;41154;45.394;5.734;2022-12-29T14:53:01;7.85;;;3.05;;
55288;SDS011;41154;45.394;5.734;2022-12-29T14:55:46;8.88;;;2.85;;
55288;SDS011;41154;45.394;5.734;2022-12-29T14:58:32;6.07;;;2.65;;
55288;SDS011;41154;45.394;5.734;2022-12-29T15:01:05;3.92;;;2.50;;
55288;SDS011;41154;45.394;5.734;2022-12-29T15:04:04;3.78;;;2.60;;
55288;SDS011;41154;45.394;5.734;2022-12-29T15:06:40;3.05;;;2.45;;
55288;SDS011;41154;45.394;5.734;2022-12-29T15:09:15;7.55;;;2.75;;
55288;SDS011;41154;45.394;5.734;2022-12-29T15:12:12;4.40;;;2.55;;
55288;SDS011;41154;45.394;5.734;2022-12-29T15:15:13;7.10;;;2.97;;
55288;SDS011;41154;45.394;5.734;2022-12-29T15:17:42;6.53;;;3.00;;
55288;SDS011;41154;45.394;5.734;2022-12-29T15:23:03;4.00;;;1.98;;
55288;SDS011;41154;45.394;5.734;2022-12-29T15:25:36;5.97;;;2.90;;
55288;SDS011;41154;45.394;5.734;2022-12-29T15:28:11;5.72;;;2.45;;
55288;SDS011;41154;45.394;5.734;2022-12-29T15:30:49;6.53;;;2.40;;
55288;SDS011;41154;45.394;5.734;2022-12-29T15:33:20;3.83;;;2.50;;
55288;SDS011;41154;45.394;5.734;2022-12-29T15:35:51;5.95;;;2.60;;
55288;SDS011;41154;45.394;5.734;2022-12-29T15:38:22;4.47;;;2.85;;
55288;SDS011;41154;45.394;5.734;2022-12-29T15:40:57;8.10;;;3.33;;
55288;SDS011;41154;45.394;5.734;2022-12-29T15:43:37;7.05;;;2.90;;
55288;SDS011;41154;45.394;5.734;2022-12-29T15:46:19;8.10;;;4.03;;
55288;SDS011;41154;45.394;5.734;2022-12-29T15:48:45;8.02;;;3.53;;
55288;SDS011;41154;45.394;5.734;2022-12-29T15:51:18;8.75;;;3.85;;
55288;SDS011;41154;45.394;5.734;2022-12-29T15:53:48;6.88;;;3.25;;
55288;SDS011;41154;45.394;5.734;2022-12-29T15:56:16;6.93;;;3.20;;
55288;SDS011;41154;45.394;5.734;2022-12-29T15:58:46;8.00;;;3.78;;
55288;SDS011;41154;45.394;5.734;2022-12-29T16:01:18;8.05;;;3.92;;
55288;SDS011;41154;45.394;5.734;2022-12-29T16:03:44;4.13;;;2.58;;
55288;SDS011;41154;45.394;5.734;2022-12-29T16:06:27;6.80;;;3.58;;
55288;SDS011;41154;45.394;5.734;2022-12-29T16:09:05;11.93;;;4.97;;
55288;SDS011;41154;45.394;5.734;2022-12-29T16:11:43;8.25;;;4.70;;
55288;SDS011;41154;45.394;5.734;2022-12-29T16:14:20;9.38;;;5.00;;
55288;SDS011;41154;45.394;5.734;2022-12-29T16:16:52;7.65;;;4.10;;
55288;SDS011;41154;45.394;5.734;2022-12-29T16:19:27;9.05;;;3.15;;
55288;SDS011;41154;45.394;5.734;2022-12-29T16:21:58;6.35;;;3.45;;
55288;SDS011;41154;45.394;5.734;2022-12-29T16:24:29;6.53;;;3.88;;
55288;SDS011;41154;45.394;5.734;2022-12-29T16:27:07;7.57;;;4.28;;
55288;SDS011;41154;45.394;5.734;2022-12-29T16:32:24;8.63;;;4.25;;
55288;SDS011;41154;45.394;5.734;2022-12-29T16:35:11;9.63;;;3.83;;
55288;SDS011;41154;45.394;5.734;2022-12-29T16:37:48;7.10;;;3.80;;
55288;SDS011;41154;45.394;5.734;2022-12-29T16:40:33;9.73;;;3.70;;
55288;SDS011;41154;45.394;5.734;2022-12-29T16:43:03;9.65;;;3.95;;
55288;SDS011;41154;45.394;5.734;2022-12-29T16:50:39;6.90;;;4.05;;
55288;SDS011;41154;45.394;5.734;2022-12-29T16:53:15;8.90;;;4.00;;
55288;SDS011;41154;45.394;5.734;2022-12-29T16:55:47;7.93;;;4.35;;
55288;SDS011;41154;45.394;5.734;2022-12-29T16:58:18;11.25;;;4.10;;
55288;SDS011;41154;45.394;5.734;2022-12-29T17:00:54;6.45;;;3.38;;
55288;SDS011;41154;45.394;5.734;2022-12-29T17:03:22;7.53;;;4.05;;
55288;SDS011;41154;45.394;5.734;2022-12-29T17:05:53;12.35;;;5.32;;
55288;SDS011;41154;45.394;5.734;2022-12-29T17:08:19;9.65;;;4.70;;
55288;SDS011;41154;45.394;5.734;2022-12-29T17:10:55;14.35;;;5.03;;
55288;SDS011;41154;45.394;5.734;2022-12-29T17:13:40;10.18;;;5.15;;
55288;SDS011;41154;45.394;5.734;2022-12-29T17:16:06;9.75;;;4.70;;
55288;SDS011;41154;45.394;5.734;2022-12-29T17:18:35;9.07;;;4.32;;
55288;SDS011;41154;45.394;5.734;2022-12-29T17:21:01;10.27;;;4.47;;
55288;SDS011;41154;45.394;5.734;2022-12-29T17:23:27;8.18;;;4.38;;
55288;SDS011;41154;45.394;5.734;2022-12-29T17:25:56;6.90;;;3.30;;
55288;SDS011;41154;45.394;5.734;2022-12-29T17:28:26;8.80;;;4.18;;
55288;SDS011;41154;45.394;5.734;2022-12-29T17:31:00;15.23;;;5.90;;
55288;SDS011;41154;45.394;5.734;2022-12-29T17:33:27;12.43;;;5.00;;
55288;SDS011;41154;45.394;5.734;2022-12-29T17:35:58;8.30;;;3.90;;
55288;SDS011;41154;45.394;5.734;2022-12-29T17:38:28;10.48;;;4.55;;
55288;SDS011;41154;45.394;5.734;2022-12-29T17:40:55;10.02;;;5.03;;
55288;SDS011;41154;45.394;5.734;2022-12-29T17:43:21;8.35;;;4.05;;
55288;SDS011;41154;45.394;5.734;2022-12-29T17:45:48;5.57;;;3.50;;
55288;SDS011;41154;45.394;5.734;2022-12-29T17:48:20;6.97;;;3.80;;